KJDD

Wood County Airport

Mineola/Quitman, Texas, USA
METAR KJDD 201615Z AUTO 24009G15KT 10SM BKN031 BKN080 31/23 A2998 RMK AO2
Observed Flight Rules
Aug-20 @ 16:15 UTC (7 minutes ago) Visual Flight Rules
Wind Visibility Clouds
240° at 9 knots
 Gusting to 15 knots
10 miles
  • Broken at 3,100' AGL
  • Broken at 8,000' AGL
Temperatures Readings
Current 31°C / 88°F
Dewpoint 23°C / 73°F
Humidity 62%
Altimeter 29.98" Hg
Pressure 1015 hPa
Elevation 132
METAR KJDD 201615Z AUTO 24009G15KT 10SM BKN031 BKN080 31/23 A2998 RMK AO2
Observed Flight Rules
Aug-20 @ 16:15 UTC
(7 minutes ago)
VFR
Wind Visibility
240° at 9 knots
 Gusting to 15 knots
10 miles
Clouds
  • Broken at 3,100' AGL
  • Broken at 8,000' AGL
Temperature Dewpoint
31°C / 88°F 23°C / 73°F
Humidity Altimeter Pressure
62% 29.98" Hg 1015 hPa